createdAt,value
2023-04-15T00:01:52.871Z,6.15
2023-04-15T00:04:20.566Z,6.20
2023-04-15T00:06:52.140Z,6.25
2023-04-15T00:09:19.420Z,6.00
2023-04-15T00:11:46.327Z,5.95
2023-04-15T00:14:13.661Z,5.93
2023-04-15T00:16:42.679Z,5.78
2023-04-15T00:19:09.612Z,6.20
2023-04-15T00:21:36.459Z,5.47
2023-04-15T00:24:03.816Z,6.05
2023-04-15T00:26:30.248Z,5.47
2023-04-15T00:28:56.814Z,5.97
2023-04-15T00:31:23.554Z,5.55
2023-04-15T00:33:50.196Z,5.90
2023-04-15T00:36:16.586Z,6.18
2023-04-15T00:38:42.984Z,5.97
2023-04-15T00:41:10.425Z,6.38
2023-04-15T00:43:36.850Z,5.82
2023-04-15T00:46:04.793Z,6.13
2023-04-15T00:48:31.682Z,5.80
2023-04-15T00:50:58.052Z,5.93
2023-04-15T00:53:24.560Z,6.15
2023-04-15T00:55:51.329Z,5.85
2023-04-15T00:58:18.171Z,5.43
2023-04-15T01:00:44.756Z,5.65
2023-04-15T01:03:11.651Z,5.47
2023-04-15T01:05:38.634Z,5.55
2023-04-15T01:08:05.675Z,5.70
2023-04-15T01:10:32.073Z,4.78
2023-04-15T01:12:58.417Z,5.75
2023-04-15T01:15:24.983Z,5.40
2023-04-15T01:17:51.598Z,5.32
2023-04-15T01:20:18.181Z,5.38
2023-04-15T01:22:45.296Z,5.25
2023-04-15T01:25:13.149Z,4.82
2023-04-15T01:27:40.858Z,5.53
2023-04-15T01:30:07.957Z,5.28
2023-04-15T01:32:34.328Z,4.95
2023-04-15T01:35:00.757Z,5.25
2023-04-15T01:37:27.486Z,5.28
2023-04-15T01:39:53.832Z,5.38
2023-04-15T01:42:24.306Z,5.00
2023-04-15T01:44:51.088Z,4.82
2023-04-15T01:47:17.611Z,5.35
2023-04-15T01:49:43.983Z,5.20
2023-04-15T01:52:10.343Z,5.65
2023-04-15T01:54:36.734Z,5.45
2023-04-15T01:57:03.674Z,5.38
2023-04-15T01:59:31.380Z,5.00
2023-04-15T02:01:57.789Z,4.93
2023-04-15T02:04:24.552Z,5.75
2023-04-15T02:06:50.940Z,4.93
2023-04-15T02:09:19.995Z,4.93
2023-04-15T02:11:46.395Z,5.20
2023-04-15T02:14:15.283Z,4.85
2023-04-15T02:16:41.685Z,4.97
2023-04-15T02:19:08.949Z,5.28
2023-04-15T02:21:35.476Z,5.10
2023-04-15T02:24:02.508Z,5.00
2023-04-15T02:26:32.038Z,5.30
2023-04-15T02:28:58.612Z,5.55
2023-04-15T02:31:25.483Z,5.70
2023-04-15T02:33:54.350Z,5.10
2023-04-15T02:36:24.025Z,6.10
2023-04-15T02:38:50.660Z,5.30
2023-04-15T02:41:17.388Z,5.60
2023-04-15T02:43:44.079Z,5.63
2023-04-15T02:46:14.630Z,6.07
2023-04-15T02:48:41.682Z,5.80
2023-04-15T02:51:11.875Z,5.60
2023-04-15T02:53:38.257Z,6.18
2023-04-15T02:56:06.084Z,5.63
2023-04-15T02:58:32.513Z,5.88
2023-04-15T03:00:58.886Z,6.25
2023-04-15T03:03:28.697Z,6.00
2023-04-15T03:05:55.361Z,6.22
2023-04-15T03:08:21.791Z,5.97
2023-04-15T03:10:49.277Z,5.90
2023-04-15T03:13:15.708Z,6.30
2023-04-15T03:15:42.162Z,6.38
2023-04-15T03:18:08.594Z,5.97
2023-04-15T03:20:35.969Z,6.10
2023-04-15T03:23:02.356Z,6.32
2023-04-15T03:25:28.678Z,6.72
2023-04-15T03:27:55.007Z,6.72
2023-04-15T03:30:21.581Z,6.25
2023-04-15T03:32:48.098Z,7.00
2023-04-15T03:35:14.490Z,6.80
2023-04-15T03:37:40.832Z,6.57
2023-04-15T03:40:07.599Z,6.82
2023-04-15T03:42:33.980Z,7.10
2023-04-15T03:45:00.710Z,6.40
2023-04-15T03:47:27.180Z,7.07
2023-04-15T03:49:56.166Z,11.23
2023-04-15T03:52:24.987Z,7.35
2023-04-15T03:54:51.546Z,7.30
2023-04-15T03:57:17.891Z,7.05
2023-04-15T03:59:46.615Z,7.80
2023-04-15T04:02:13.012Z,7.85
2023-04-15T04:04:39.436Z,8.00
2023-04-15T04:07:06.223Z,7.85
2023-04-15T04:09:32.617Z,8.48
2023-04-15T04:11:59.017Z,8.77
2023-04-15T04:14:29.664Z,8.50
2023-04-15T04:16:57.566Z,8.23
2023-04-15T04:19:24.122Z,8.98
2023-04-15T04:21:50.682Z,8.70
2023-04-15T04:24:19.518Z,9.27
2023-04-15T04:26:46.300Z,9.55
2023-04-15T04:29:12.697Z,9.13
2023-04-15T04:31:39.202Z,9.88
2023-04-15T04:34:06.106Z,9.43
2023-04-15T04:36:32.470Z,9.88
2023-04-15T04:38:58.904Z,10.30
2023-04-15T04:41:25.503Z,10.27
2023-04-15T04:43:51.956Z,10.52
2023-04-15T04:46:18.593Z,10.35
2023-04-15T04:48:46.614Z,10.50
2023-04-15T04:51:13.587Z,11.55
2023-04-15T04:53:39.975Z,10.77
2023-04-15T04:56:08.784Z,10.43
2023-04-15T04:58:35.143Z,11.07
2023-04-15T05:01:01.576Z,10.43
2023-04-15T05:03:28.315Z,10.55
2023-04-15T05:05:57.204Z,10.98
2023-04-15T05:08:23.641Z,11.63
2023-04-15T05:10:50.053Z,11.73
2023-04-15T05:13:16.419Z,11.93
2023-04-15T05:15:43.353Z,11.70
2023-04-15T05:18:09.750Z,11.75
2023-04-15T05:20:38.533Z,11.20
2023-04-15T05:23:04.914Z,12.93
2023-04-15T05:25:31.674Z,11.88
2023-04-15T05:27:58.341Z,11.95
2023-04-15T05:30:24.767Z,12.23
2023-04-15T05:32:53.618Z,12.73
2023-04-15T05:35:19.988Z,12.05
2023-04-15T05:37:46.680Z,11.80
2023-04-15T05:40:13.157Z,12.77
2023-04-15T05:42:39.514Z,11.80
2023-04-15T05:45:09.330Z,12.65
2023-04-15T05:47:36.547Z,12.48
2023-04-15T05:50:03.893Z,11.73
2023-04-15T05:52:31.088Z,11.80
2023-04-15T05:54:57.581Z,10.80
2023-04-15T05:57:23.944Z,11.70
2023-04-15T05:59:52.781Z,10.70
2023-04-15T06:02:19.295Z,11.10
2023-04-15T06:04:45.748Z,10.45
2023-04-15T06:07:12.153Z,10.43
2023-04-15T06:09:38.528Z,9.73
2023-04-15T06:12:06.551Z,8.90
2023-04-15T06:14:32.926Z,9.07
2023-04-15T06:17:02.123Z,9.88
2023-04-15T06:19:28.650Z,9.27
2023-04-15T06:21:55.122Z,8.85
2023-04-15T06:24:21.514Z,8.98
2023-04-15T06:26:47.886Z,9.27
2023-04-15T06:29:14.320Z,8.35
2023-04-15T06:31:40.999Z,8.15
2023-04-15T06:34:07.708Z,7.55
2023-04-15T06:36:34.037Z,7.80
2023-04-15T06:39:01.495Z,7.80
2023-04-15T06:41:28.097Z,8.57
2023-04-15T06:43:54.497Z,8.45
2023-04-15T06:46:21.110Z,8.32
2023-04-15T06:48:47.506Z,8.40
2023-04-15T06:51:13.992Z,8.77
2023-04-15T06:53:42.166Z,8.10
2023-04-15T06:56:09.559Z,8.27
2023-04-15T06:58:36.313Z,8.20
2023-04-15T07:01:03.401Z,8.40
2023-04-15T07:03:32.573Z,8.48
2023-04-15T07:05:59.681Z,7.75
2023-04-15T07:08:26.411Z,8.95
2023-04-15T07:10:54.149Z,8.77
2023-04-15T07:13:20.741Z,8.20
2023-04-15T07:15:47.146Z,6.65
2023-04-15T07:18:14.038Z,6.72
2023-04-15T07:20:42.832Z,6.32
2023-04-15T07:23:09.537Z,6.07
2023-04-15T07:25:36.139Z,7.00
2023-04-15T07:28:02.554Z,6.38
2023-04-15T07:30:29.543Z,6.57
2023-04-15T07:32:56.137Z,7.30
2023-04-15T07:35:23.424Z,8.00
2023-04-15T07:37:52.205Z,7.55
2023-04-15T07:40:18.578Z,7.78
2023-04-15T07:42:44.986Z,7.43
2023-04-15T07:45:11.577Z,8.05
2023-04-15T07:47:38.072Z,7.85
2023-04-15T07:50:04.726Z,7.90
2023-04-15T07:52:31.377Z,8.25
2023-04-15T07:54:58.185Z,6.82
2023-04-15T07:57:24.604Z,7.00
2023-04-15T07:59:51.199Z,7.38
2023-04-15T08:02:18.407Z,8.13
2023-04-15T08:04:44.942Z,8.48
2023-04-15T08:07:11.806Z,8.98
2023-04-15T08:09:38.171Z,7.75
2023-04-15T08:12:04.640Z,7.00
2023-04-15T08:14:30.995Z,7.90
2023-04-15T08:16:57.341Z,9.20
2023-04-15T08:19:24.271Z,8.57
2023-04-15T08:21:51.224Z,8.35
2023-04-15T08:24:17.770Z,7.93
2023-04-15T08:26:44.123Z,7.90
2023-04-15T08:29:10.508Z,8.07
2023-04-15T08:31:37.000Z,7.25
2023-04-15T08:34:03.653Z,7.63
2023-04-15T08:36:30.089Z,6.78
2023-04-15T08:38:56.651Z,7.20
2023-04-15T08:41:24.330Z,7.63
2023-04-15T08:43:57.151Z,7.38
2023-04-15T08:46:26.084Z,7.33
2023-04-15T08:48:53.884Z,6.82
2023-04-15T08:51:20.416Z,7.47
2023-04-15T08:53:47.515Z,7.47
2023-04-15T08:56:15.479Z,7.45
2023-04-15T08:58:42.305Z,7.68
2023-04-15T09:01:08.743Z,7.63
2023-04-15T09:03:37.665Z,7.30
2023-04-15T09:06:04.921Z,7.20
2023-04-15T09:08:31.687Z,6.78
2023-04-15T09:10:58.181Z,7.13
2023-04-15T09:13:24.529Z,7.72
2023-04-15T09:15:50.989Z,7.60
2023-04-15T09:18:33.521Z,6.72
2023-04-15T09:21:11.379Z,7.40
2023-04-15T09:23:41.220Z,6.88
2023-04-15T09:26:07.762Z,6.93
2023-04-15T09:28:40.967Z,7.22
2023-04-15T09:31:10.498Z,6.95
2023-04-15T09:33:53.768Z,6.90
2023-04-15T09:36:20.946Z,6.40
2023-04-15T09:38:59.849Z,6.25
2023-04-15T09:41:26.973Z,7.60
2023-04-15T09:43:53.572Z,7.60
2023-04-15T09:46:20.226Z,7.60
2023-04-15T09:48:46.667Z,7.80
2023-04-15T09:51:13.063Z,7.93
2023-04-15T09:53:39.393Z,7.47
2023-04-15T09:56:07.967Z,8.23
2023-04-15T09:58:35.221Z,8.00
2023-04-15T10:01:03.625Z,8.38
2023-04-15T10:03:31.817Z,8.07
2023-04-15T10:05:59.940Z,8.43
2023-04-15T10:08:30.805Z,8.27
2023-04-15T10:10:57.639Z,7.78
2023-04-15T10:13:25.856Z,7.82
2023-04-15T10:16:02.483Z,8.65
2023-04-15T10:18:29.188Z,8.20
2023-04-15T10:20:55.627Z,7.75
2023-04-15T10:23:25.704Z,7.90
2023-04-15T10:25:52.798Z,7.80
2023-04-15T10:28:19.624Z,8.85
2023-04-15T10:30:47.963Z,8.15
2023-04-15T10:33:14.460Z,8.43
2023-04-15T10:35:40.909Z,8.25
2023-04-15T10:38:26.201Z,7.15
2023-04-15T10:40:52.584Z,8.48
2023-04-15T10:43:26.416Z,8.52
2023-04-15T10:45:53.779Z,7.78
2023-04-15T10:48:20.506Z,8.10
2023-04-15T10:51:02.117Z,7.75
2023-04-15T10:53:29.486Z,7.38
2023-04-15T10:55:56.971Z,7.63
2023-04-15T10:58:24.670Z,6.03
2023-04-15T11:00:53.005Z,7.00
2023-04-15T11:03:41.771Z,6.75
2023-04-15T11:06:08.618Z,6.32
2023-04-15T11:08:54.992Z,6.90
2023-04-15T11:11:23.829Z,7.32
2023-04-15T11:13:51.167Z,7.32
2023-04-15T11:16:17.673Z,8.15
2023-04-15T11:18:53.567Z,6.40
2023-04-15T11:21:19.932Z,7.45
2023-04-15T11:23:49.627Z,8.02
2023-04-15T11:26:16.275Z,8.90
2023-04-15T11:28:43.813Z,7.90
2023-04-15T11:31:17.901Z,7.20
2023-04-15T11:33:45.993Z,7.28
2023-04-15T11:36:12.627Z,6.70
2023-04-15T11:38:42.441Z,7.55
2023-04-15T11:41:08.821Z,8.20
2023-04-15T11:43:35.572Z,7.93
2023-04-15T11:46:03.205Z,7.57
2023-04-15T11:48:30.710Z,7.93
2023-04-15T11:51:09.060Z,7.72
2023-04-15T11:53:46.434Z,7.93
2023-04-15T11:56:23.004Z,7.60
2023-04-15T11:58:52.773Z,7.10
2023-04-15T12:01:19.265Z,7.45
2023-04-15T12:03:46.941Z,7.28
2023-04-15T12:06:14.007Z,8.35
2023-04-15T12:08:55.488Z,8.82
2023-04-15T12:11:31.464Z,9.15
2023-04-15T12:14:16.688Z,9.88
2023-04-15T12:16:49.388Z,7.07
2023-04-15T12:19:17.652Z,7.43
2023-04-15T12:21:45.260Z,7.95
2023-04-15T12:24:12.692Z,7.85
2023-04-15T12:26:53.140Z,7.63
2023-04-15T12:29:19.990Z,7.53
2023-04-15T12:31:51.409Z,7.25
2023-04-15T12:34:18.169Z,7.10
2023-04-15T12:36:44.601Z,7.43
2023-04-15T12:39:11.194Z,9.07
2023-04-15T12:41:37.992Z,8.25
2023-04-15T12:44:05.488Z,7.05
2023-04-15T12:46:32.716Z,7.80
2023-04-15T12:48:59.307Z,8.07
2023-04-15T12:51:27.387Z,7.32
2023-04-15T12:53:53.878Z,7.70
2023-04-15T12:56:20.367Z,7.22
2023-04-15T12:58:46.774Z,8.50
2023-04-15T13:01:13.222Z,8.40
2023-04-15T13:03:39.815Z,8.07
2023-04-15T13:06:06.923Z,8.30
2023-04-15T13:08:33.372Z,10.13
2023-04-15T13:11:00.043Z,7.50
2023-04-15T13:13:27.289Z,10.82
2023-04-15T13:15:53.890Z,8.87
2023-04-15T13:18:20.553Z,9.07
2023-04-15T13:20:47.726Z,9.20
2023-04-15T13:23:14.757Z,7.80
2023-04-15T13:25:41.246Z,8.63
2023-04-15T13:28:07.735Z,8.23
2023-04-15T13:30:34.293Z,7.75
2023-04-15T13:33:00.834Z,8.60
2023-04-15T13:35:29.783Z,8.38
2023-04-15T13:37:56.533Z,8.70
2023-04-15T13:40:23.058Z,8.50
2023-04-15T13:42:51.955Z,7.53
2023-04-15T13:45:18.575Z,7.93
2023-04-15T13:47:45.325Z,9.15
2023-04-15T13:50:12.330Z,8.52
2023-04-15T13:52:39.845Z,7.57
2023-04-15T13:55:07.491Z,7.47
2023-04-15T13:57:47.225Z,7.45
2023-04-15T14:00:14.546Z,7.95
2023-04-15T14:02:42.198Z,7.60
2023-04-15T14:05:11.239Z,7.75
2023-04-15T14:07:37.722Z,9.07
2023-04-15T14:10:04.453Z,9.50
2023-04-15T14:12:31.118Z,8.70
2023-04-15T14:14:57.656Z,7.13
2023-04-15T14:17:24.157Z,9.25
2023-04-15T14:19:53.232Z,13.23
2023-04-15T14:22:19.692Z,8.30
2023-04-15T14:24:46.184Z,9.52
2023-04-15T14:27:12.730Z,7.75
2023-04-15T14:29:39.309Z,8.75
2023-04-15T14:32:11.828Z,8.50
2023-04-15T14:34:39.406Z,6.45
2023-04-15T14:37:05.922Z,7.50
2023-04-15T14:39:32.473Z,9.35
2023-04-15T14:41:58.975Z,7.43
2023-04-15T14:44:25.485Z,8.40
2023-04-15T14:46:52.087Z,7.80
2023-04-15T14:49:18.683Z,7.53
2023-04-15T14:51:46.245Z,8.13
2023-04-15T14:54:12.756Z,7.90
2023-04-15T14:56:39.302Z,7.50
2023-04-15T14:59:06.224Z,8.00
2023-04-15T15:01:33.571Z,7.07
2023-04-15T15:04:00.231Z,8.20
2023-04-15T15:06:26.773Z,8.93
2023-04-15T15:08:53.226Z,7.45
2023-04-15T15:11:19.738Z,8.15
2023-04-15T15:13:49.030Z,8.18
2023-04-15T15:16:15.551Z,8.02
2023-04-15T15:18:42.029Z,8.35
2023-04-15T15:21:08.572Z,7.28
2023-04-15T15:23:35.023Z,7.60
2023-04-15T15:26:01.558Z,8.10
2023-04-15T15:28:28.021Z,6.78
2023-04-15T15:30:54.780Z,7.28
2023-04-15T15:33:21.630Z,8.10
2023-04-15T15:35:50.719Z,6.60
2023-04-15T15:38:17.460Z,6.78
2023-04-15T15:40:43.981Z,6.50
2023-04-15T15:43:10.414Z,7.20
2023-04-15T15:45:36.990Z,7.10
2023-04-15T15:48:03.762Z,6.60
2023-04-15T15:50:30.364Z,6.28
2023-04-15T15:52:59.076Z,6.25
2023-04-15T15:55:28.518Z,6.68
2023-04-15T15:57:54.963Z,6.63
2023-04-15T16:00:23.306Z,5.85
2023-04-15T16:03:05.877Z,6.20
2023-04-15T16:05:36.883Z,5.93
2023-04-15T16:08:03.721Z,6.20
2023-04-15T16:10:30.526Z,6.85
2023-04-15T16:12:57.025Z,5.70
2023-04-15T16:15:25.303Z,6.03
2023-04-15T16:17:51.905Z,5.28
2023-04-15T16:20:18.471Z,5.50
2023-04-15T16:22:47.561Z,5.30
2023-04-15T16:25:14.018Z,5.13
2023-04-15T16:27:57.249Z,5.50
2023-04-15T16:30:27.163Z,5.80
2023-04-15T16:32:56.557Z,6.82
2023-04-15T16:35:23.046Z,6.95
2023-04-15T16:37:49.587Z,8.30
2023-04-15T16:40:16.124Z,7.72
2023-04-15T16:42:43.798Z,6.85
2023-04-15T16:45:10.808Z,5.90
2023-04-15T16:47:37.360Z,5.50
2023-04-15T16:50:04.813Z,3.85
2023-04-15T16:52:33.858Z,5.15
2023-04-15T16:55:00.393Z,4.68
2023-04-15T16:57:32.661Z,3.90
2023-04-15T17:00:16.165Z,3.30
2023-04-15T17:02:42.762Z,3.63
2023-04-15T17:05:09.526Z,3.22
2023-04-15T17:07:36.029Z,3.38
2023-04-15T17:10:02.536Z,3.15
2023-04-15T17:12:29.776Z,3.65
2023-04-15T17:14:56.410Z,4.40
2023-04-15T17:17:23.008Z,4.15
2023-04-15T17:19:49.535Z,3.60
2023-04-15T17:22:17.048Z,3.50
2023-04-15T17:24:43.620Z,3.60
2023-04-15T17:27:10.563Z,3.80
2023-04-15T17:29:39.584Z,3.80
2023-04-15T17:32:08.018Z,3.85
2023-04-15T17:34:50.796Z,4.72
2023-04-15T17:37:20.338Z,5.70
2023-04-15T17:39:46.841Z,4.88
2023-04-15T17:42:13.804Z,6.05
2023-04-15T17:44:40.803Z,6.10
2023-04-15T17:47:07.505Z,5.28
2023-04-15T17:49:34.434Z,4.90
2023-04-15T17:52:01.334Z,5.50
2023-04-15T17:54:28.091Z,5.05
2023-04-15T17:56:54.646Z,4.53
2023-04-15T17:59:21.196Z,5.45
2023-04-15T18:01:47.871Z,4.20
2023-04-15T18:04:14.553Z,3.78
2023-04-15T18:06:41.169Z,4.65
2023-04-15T18:09:08.936Z,4.75
2023-04-15T18:11:35.665Z,5.03
2023-04-15T18:14:05.112Z,4.38
2023-04-15T18:16:32.078Z,4.93
2023-04-15T18:18:59.383Z,4.82
2023-04-15T18:21:27.219Z,5.45
2023-04-15T18:23:53.767Z,5.25
2023-04-15T18:26:21.601Z,5.63
2023-04-15T18:28:48.327Z,5.90
2023-04-15T18:31:19.506Z,6.05
2023-04-15T18:33:46.167Z,5.82
2023-04-15T18:36:15.719Z,5.53
2023-04-15T18:38:42.274Z,5.38
2023-04-15T18:41:11.343Z,5.68
2023-04-15T18:43:37.823Z,5.90
2023-04-15T18:46:09.511Z,5.40
2023-04-15T18:48:37.154Z,5.90
2023-04-15T18:51:03.656Z,5.85
2023-04-15T18:53:32.464Z,5.53
2023-04-15T18:56:01.698Z,5.88
2023-04-15T18:59:22.918Z,5.68
2023-04-15T19:01:19.726Z,6.30
2023-04-15T19:03:46.904Z,5.63
2023-04-15T19:06:13.897Z,5.78
2023-04-15T19:08:40.967Z,5.80
2023-04-15T19:11:10.660Z,5.88
2023-04-15T19:13:37.231Z,5.97
2023-04-15T19:16:04.029Z,5.93
2023-04-15T19:18:30.717Z,6.10
2023-04-15T19:20:57.303Z,5.68
2023-04-15T19:23:23.955Z,5.63
2023-04-15T19:25:50.526Z,5.70
2023-04-15T19:28:16.958Z,6.35
2023-04-15T19:30:43.481Z,5.43
2023-04-15T19:33:09.975Z,5.78
2023-04-15T19:35:38.279Z,6.28
2023-04-15T19:38:04.888Z,5.80
2023-04-15T19:40:34.345Z,5.90
2023-04-15T19:43:00.856Z,6.40
2023-04-15T19:45:27.462Z,5.68
2023-04-15T19:47:56.399Z,6.50
2023-04-15T19:50:26.415Z,6.57
2023-04-15T19:52:53.906Z,6.22
2023-04-15T19:55:20.441Z,5.70
2023-04-15T19:57:49.505Z,5.55
2023-04-15T20:00:16.564Z,6.10
2023-04-15T20:02:43.179Z,6.18
2023-04-15T20:05:10.162Z,6.20
2023-04-15T20:07:39.118Z,6.55
2023-04-15T20:10:08.572Z,6.00
2023-04-15T20:12:49.836Z,6.10
2023-04-15T20:15:19.119Z,6.38
2023-04-15T20:17:45.781Z,5.80
2023-04-15T20:20:12.380Z,6.15
2023-04-15T20:22:39.096Z,5.22
2023-04-15T20:25:06.657Z,5.75
2023-04-15T20:27:33.973Z,6.00
2023-04-15T20:30:00.920Z,5.43
2023-04-15T20:32:28.406Z,6.32
2023-04-15T20:34:55.141Z,6.20
2023-04-15T20:37:22.307Z,6.32
2023-04-15T20:39:49.072Z,5.93
2023-04-15T20:42:16.067Z,5.72
2023-04-15T20:44:45.716Z,5.65
2023-04-15T20:47:12.316Z,5.75
2023-04-15T20:49:41.152Z,6.40
2023-04-15T20:52:10.196Z,5.85
2023-04-15T20:54:39.264Z,5.63
2023-04-15T20:57:06.003Z,5.63
2023-04-15T20:59:33.700Z,5.70
2023-04-15T21:02:01.004Z,6.05
2023-04-15T21:04:27.607Z,5.82
2023-04-15T21:06:54.186Z,6.45
2023-04-15T21:09:20.688Z,6.10
2023-04-15T21:14:19.758Z,6.40
2023-04-15T21:16:46.369Z,7.10
2023-04-15T21:19:12.913Z,6.72
2023-04-15T21:21:40.392Z,6.82
2023-04-15T21:24:08.511Z,6.80
2023-04-15T21:26:37.388Z,7.03
2023-04-15T21:29:11.462Z,6.85
2023-04-15T21:31:38.521Z,7.20
2023-04-15T21:34:05.802Z,6.78
2023-04-15T21:36:32.800Z,6.88
2023-04-15T21:38:59.732Z,7.05
2023-04-15T21:41:26.440Z,7.18
2023-04-15T21:43:53.412Z,6.93
2023-04-15T21:46:22.060Z,6.68
2023-04-15T21:48:50.322Z,7.15
2023-04-15T21:51:16.941Z,7.15
2023-04-15T21:53:45.830Z,7.10
2023-04-15T21:56:12.538Z,7.05
2023-04-15T21:58:41.337Z,7.03
2023-04-15T22:01:10.215Z,6.82
2023-04-15T22:03:36.999Z,6.68
2023-04-15T22:06:04.120Z,6.50
2023-04-15T22:08:38.168Z,6.63
2023-04-15T22:11:17.981Z,6.55
2023-04-15T22:13:44.470Z,6.95
2023-04-15T22:16:11.624Z,6.60
2023-04-15T22:18:38.117Z,6.70
2023-04-15T22:21:04.581Z,6.35
2023-04-15T22:23:31.051Z,6.72
2023-04-15T22:25:57.480Z,6.07
2023-04-15T22:28:23.899Z,6.15
2023-04-15T22:30:50.328Z,6.18
2023-04-15T22:33:16.805Z,6.20
2023-04-15T22:35:43.265Z,5.75
2023-04-15T22:38:09.807Z,5.93
2023-04-15T22:40:36.223Z,5.88
2023-04-15T22:43:05.048Z,5.93
2023-04-15T22:45:31.503Z,5.68
2023-04-15T22:48:00.560Z,6.13
2023-04-15T22:50:27.083Z,5.72
2023-04-15T22:52:53.587Z,5.97
2023-04-15T22:55:22.390Z,5.22
2023-04-15T22:57:48.855Z,5.38
2023-04-15T23:00:15.384Z,5.93
2023-04-15T23:02:41.980Z,5.68
2023-04-15T23:05:12.760Z,5.55
2023-04-15T23:07:42.276Z,5.55
2023-04-15T23:10:08.968Z,5.90
2023-04-15T23:12:35.690Z,6.00
2023-04-15T23:15:03.182Z,5.93
2023-04-15T23:17:30.203Z,5.72
2023-04-15T23:19:56.644Z,5.25
2023-04-15T23:22:23.230Z,5.60
2023-04-15T23:24:49.733Z,6.15
2023-04-15T23:27:18.950Z,5.72
2023-04-15T23:29:46.064Z,6.07
2023-04-15T23:32:12.620Z,6.63
2023-04-15T23:34:39.184Z,6.00
2023-04-15T23:37:05.902Z,5.80
2023-04-15T23:39:32.371Z,5.85
2023-04-15T23:41:58.894Z,6.45
2023-04-15T23:44:25.393Z,6.30
2023-04-15T23:46:51.849Z,6.25
2023-04-15T23:49:20.203Z,6.22
2023-04-15T23:51:47.119Z,6.95
2023-04-15T23:54:13.571Z,6.25
2023-04-15T23:56:40.109Z,6.50
2023-04-15T23:59:10.291Z,6.95
